createdAt,value
2018-06-25T00:01:34.790Z,12.45
2018-06-25T00:04:03.900Z,12.45
2018-06-25T00:06:33.408Z,12.45
2018-06-25T00:09:02.215Z,12.45
2018-06-25T00:11:31.970Z,12.44
2018-06-25T00:14:01.643Z,12.42
2018-06-25T00:16:31.101Z,12.37
2018-06-25T00:18:59.854Z,12.31
2018-06-25T00:21:29.583Z,12.24
2018-06-25T00:23:59.409Z,12.20
2018-06-25T00:26:28.199Z,12.19
2018-06-25T00:28:56.951Z,12.16
2018-06-25T00:31:26.378Z,12.16
2018-06-25T00:33:55.895Z,12.13
2018-06-25T00:36:24.670Z,12.11
2018-06-25T00:38:53.435Z,12.10
2018-06-25T00:41:22.331Z,12.08
2018-06-25T00:43:51.383Z,12.06
2018-06-25T00:46:20.502Z,12.02
2018-06-25T00:48:50.198Z,11.95
2018-06-25T00:51:19.871Z,11.88
2018-06-25T00:53:48.675Z,11.84
2018-06-25T00:56:18.269Z,11.77
2018-06-25T00:58:57.986Z,11.71
2018-06-25T01:01:27.099Z,11.62
2018-06-25T01:03:55.915Z,11.57
2018-06-25T01:06:25.495Z,11.54
2018-06-25T01:08:54.275Z,11.52
2018-06-25T01:11:23.978Z,11.49
2018-06-25T01:13:53.522Z,11.48
2018-06-25T01:16:23.538Z,11.44
2018-06-25T01:18:52.398Z,11.40
2018-06-25T01:21:22.446Z,11.32
2018-06-25T01:23:51.255Z,11.19
2018-06-25T01:26:20.097Z,11.09
2018-06-25T01:28:48.919Z,11.04
2018-06-25T01:31:18.551Z,11.04
2018-06-25T01:33:48.130Z,11.04
2018-06-25T01:36:18.044Z,11.03
2018-06-25T01:38:46.862Z,10.96
2018-06-25T01:41:15.644Z,10.90
2018-06-25T01:43:45.263Z,10.86
2018-06-25T01:46:14.040Z,10.87
2018-06-25T01:48:43.595Z,10.88
2018-06-25T01:51:13.054Z,10.87
2018-06-25T01:53:41.838Z,10.82
2018-06-25T01:56:11.619Z,10.75
2018-06-25T01:58:40.515Z,10.64
2018-06-25T02:01:09.590Z,10.59
2018-06-25T02:03:38.609Z,10.56
2018-06-25T02:06:08.543Z,10.56
2018-06-25T02:08:37.696Z,10.59
2018-06-25T02:11:07.610Z,10.62
2018-06-25T02:13:36.516Z,10.64
2018-06-25T02:16:06.541Z,10.67
2018-06-25T02:18:35.414Z,10.71
2018-06-25T02:21:04.899Z,10.71
2018-06-25T02:23:33.729Z,10.65
2018-06-25T02:26:02.520Z,10.63
2018-06-25T02:28:31.355Z,10.59
2018-06-25T02:31:00.913Z,10.56
2018-06-25T02:33:30.620Z,10.58
2018-06-25T02:36:00.555Z,10.59
2018-06-25T02:38:29.397Z,10.63
2018-06-25T02:40:58.268Z,10.69
2018-06-25T02:43:27.081Z,10.76
2018-06-25T02:45:56.840Z,10.84
2018-06-25T02:48:25.650Z,10.93
2018-06-25T02:50:54.439Z,11.05
2018-06-25T02:53:23.351Z,11.59
2018-06-25T02:55:52.844Z,12.46
2018-06-25T02:58:21.578Z,13.38
2018-06-25T03:00:50.320Z,14.36
2018-06-25T03:03:19.227Z,15.27
2018-06-25T03:05:48.847Z,16.07
2018-06-25T03:08:17.628Z,16.78
2018-06-25T03:10:47.049Z,17.35
2018-06-25T03:13:15.819Z,17.77
2018-06-25T03:15:45.415Z,18.26
2018-06-25T03:18:14.177Z,18.84
2018-06-25T03:20:43.992Z,19.45
2018-06-25T03:23:13.366Z,20.08
2018-06-25T03:25:42.098Z,20.69
2018-06-25T03:28:10.943Z,21.20
2018-06-25T03:30:40.378Z,21.61
2018-06-25T03:33:10.076Z,21.81
2018-06-25T03:35:39.702Z,21.97
2018-06-25T03:38:08.751Z,22.12
2018-06-25T03:40:37.759Z,22.18
2018-06-25T03:43:07.728Z,22.26
2018-06-25T03:45:37.355Z,22.41
2018-06-25T03:48:06.264Z,22.61
2018-06-25T03:50:35.097Z,22.91
2018-06-25T03:53:03.949Z,23.14
2018-06-25T03:55:33.414Z,23.54
2018-06-25T03:58:02.235Z,24.06
2018-06-25T04:00:30.999Z,24.60
2018-06-25T04:02:59.786Z,24.71
2018-06-25T04:05:29.542Z,24.94
2018-06-25T04:07:59.169Z,25.00
2018-06-25T04:10:28.606Z,24.97
2018-06-25T04:12:57.578Z,24.86
2018-06-25T04:15:27.134Z,24.62
2018-06-25T04:17:55.923Z,24.19
2018-06-25T04:20:24.664Z,23.70
2018-06-25T04:22:54.110Z,23.09
2018-06-25T04:25:23.083Z,22.40
2018-06-25T04:27:51.867Z,21.79
2018-06-25T04:30:20.680Z,21.26
2018-06-25T04:32:50.191Z,20.75
2018-06-25T04:35:19.808Z,20.34
2018-06-25T04:37:48.600Z,19.95
2018-06-25T04:40:17.577Z,19.63
2018-06-25T04:42:47.082Z,19.41
2018-06-25T04:45:15.899Z,19.31
2018-06-25T04:47:44.656Z,19.20
2018-06-25T04:50:13.486Z,19.07
2018-06-25T04:52:42.254Z,19.04
2018-06-25T04:55:11.880Z,18.96
2018-06-25T04:57:41.135Z,18.86
2018-06-25T05:00:10.282Z,18.82
2018-06-25T05:02:39.510Z,18.75
2018-06-25T05:05:09.079Z,18.71
2018-06-25T05:07:38.598Z,18.66
2018-06-25T05:10:08.997Z,18.60
2018-06-25T05:12:37.956Z,18.59
2018-06-25T05:15:07.694Z,18.61
2018-06-25T05:17:37.190Z,18.63
2018-06-25T05:20:06.231Z,18.64
2018-06-25T05:22:35.641Z,18.66
2018-06-25T05:25:04.478Z,18.72
2018-06-25T05:27:33.230Z,18.80
2018-06-25T05:30:02.075Z,18.78
2018-06-25T05:32:31.411Z,18.79
2018-06-25T05:35:00.907Z,18.74
2018-06-25T05:37:29.697Z,18.78
2018-06-25T05:39:59.599Z,18.81
2018-06-25T05:42:28.409Z,18.81
2018-06-25T05:44:57.160Z,18.79
2018-06-25T05:47:25.959Z,18.86
2018-06-25T05:49:54.684Z,18.97
2018-06-25T05:52:23.703Z,19.14
2018-06-25T05:54:53.567Z,19.29
2018-06-25T05:57:23.332Z,19.43
2018-06-25T05:59:52.148Z,19.53
2018-06-25T06:02:20.926Z,19.63
2018-06-25T06:04:49.723Z,19.76
2018-06-25T06:07:19.438Z,19.87
2018-06-25T06:09:49.159Z,19.95
2018-06-25T06:12:18.187Z,20.04
2018-06-25T06:14:47.591Z,20.08
2018-06-25T06:17:17.063Z,20.15
2018-06-25T06:19:45.993Z,20.21
2018-06-25T06:22:15.429Z,20.27
2018-06-25T06:24:44.254Z,20.34
2018-06-25T06:27:13.020Z,20.45
2018-06-25T06:29:42.075Z,20.45
2018-06-25T06:32:12.106Z,20.52
2018-06-25T06:34:42.135Z,20.53
2018-06-25T06:37:12.744Z,20.63
2018-06-25T06:39:41.835Z,20.86
2018-06-25T06:42:10.894Z,20.98
2018-06-25T06:44:40.311Z,21.03
2018-06-25T06:47:09.309Z,21.05
2018-06-25T06:49:38.360Z,21.14
2018-06-25T06:52:07.478Z,21.15
2018-06-25T06:54:37.246Z,21.14
2018-06-25T06:57:06.687Z,21.13
2018-06-25T06:59:36.338Z,21.18
2018-06-25T07:02:05.135Z,21.34
2018-06-25T07:04:33.946Z,21.42
2018-06-25T07:07:03.470Z,21.49
2018-06-25T07:09:33.096Z,21.64
2018-06-25T07:12:01.844Z,21.78
2018-06-25T07:14:31.383Z,21.93
2018-06-25T07:17:00.991Z,21.95
2018-06-25T07:19:29.739Z,22.03
2018-06-25T07:21:59.283Z,22.12
2018-06-25T07:24:28.014Z,22.20
2018-06-25T07:26:56.808Z,22.10
2018-06-25T07:29:25.632Z,22.18
2018-06-25T07:31:55.159Z,22.37
2018-06-25T07:34:24.768Z,22.49
2018-06-25T07:36:53.579Z,22.56
2018-06-25T07:39:22.339Z,22.67
2018-06-25T07:41:51.204Z,22.72
2018-06-25T07:44:20.010Z,22.80
2018-06-25T07:46:49.062Z,22.82
2018-06-25T07:49:17.835Z,22.95
2018-06-25T07:51:46.723Z,23.14
2018-06-25T07:54:16.399Z,23.31
2018-06-25T07:56:46.080Z,23.41
2018-06-25T07:59:14.838Z,23.62
2018-06-25T08:01:43.619Z,23.89
2018-06-25T08:04:12.559Z,24.02
2018-06-25T08:06:42.303Z,24.13
2018-06-25T08:09:12.117Z,24.30
2018-06-25T08:11:41.979Z,24.64
2018-06-25T08:14:11.946Z,24.72
2018-06-25T08:16:41.622Z,24.73
2018-06-25T08:19:10.651Z,24.97
2018-06-25T08:21:40.268Z,25.21
2018-06-25T08:24:09.277Z,25.40
2018-06-25T08:26:38.067Z,25.29
2018-06-25T08:29:06.898Z,25.22
2018-06-25T08:31:36.111Z,25.31
2018-06-25T08:34:06.669Z,25.34
2018-06-25T08:36:35.512Z,25.48
2018-06-25T08:39:07.078Z,25.51
2018-06-25T08:41:35.901Z,25.57
2018-06-25T08:44:05.016Z,25.67
2018-06-25T08:46:33.894Z,25.80
2018-06-25T08:49:02.743Z,25.79
2018-06-25T08:51:31.498Z,25.75
2018-06-25T08:54:00.357Z,25.66
2018-06-25T08:56:30.333Z,25.62
2018-06-25T08:58:59.278Z,25.77
2018-06-25T09:01:28.066Z,25.81
2018-06-25T09:03:57.241Z,26.00
2018-06-25T09:06:26.610Z,25.92
2018-06-25T09:08:55.381Z,25.68
2018-06-25T09:11:24.941Z,25.70
2018-06-25T09:13:54.596Z,25.72
2018-06-25T09:16:23.999Z,25.74
2018-06-25T09:18:52.759Z,25.64
2018-06-25T09:21:22.337Z,25.77
2018-06-25T09:23:51.138Z,25.77
2018-06-25T09:26:19.947Z,25.76
2018-06-25T09:28:49.634Z,25.72
2018-06-25T09:31:18.879Z,25.59
2018-06-25T09:33:49.058Z,25.52
2018-06-25T09:36:18.626Z,25.65
2018-06-25T09:38:47.522Z,25.55
2018-06-25T09:41:16.337Z,25.47
2018-06-25T09:43:45.190Z,25.47
2018-06-25T09:46:13.990Z,25.41
2018-06-25T09:48:43.219Z,25.31
2018-06-25T09:51:12.366Z,25.15
2018-06-25T09:53:41.438Z,25.07
2018-06-25T09:56:11.399Z,25.04
2018-06-25T09:58:40.806Z,25.10
2018-06-25T10:01:12.376Z,25.12
2018-06-25T10:03:42.296Z,25.15
2018-06-25T10:06:12.079Z,25.08
2018-06-25T10:08:41.355Z,24.91
2018-06-25T10:11:11.080Z,24.76
2018-06-25T10:13:40.095Z,24.73
2018-06-25T10:16:10.142Z,24.79
2018-06-25T10:18:39.030Z,24.96
2018-06-25T10:21:08.747Z,25.09
2018-06-25T10:23:37.538Z,25.42
2018-06-25T10:26:06.314Z,25.56
2018-06-25T10:28:35.678Z,25.47
2018-06-25T10:31:05.386Z,25.37
2018-06-25T10:33:34.848Z,25.27
2018-06-25T10:36:04.359Z,25.23
2018-06-25T10:38:33.131Z,25.18
2018-06-25T10:41:01.964Z,25.17
2018-06-25T10:43:30.811Z,25.20
2018-06-25T10:45:59.585Z,25.12
2018-06-25T10:48:28.685Z,25.19
2018-06-25T10:50:57.633Z,25.40
2018-06-25T10:53:26.436Z,25.69
2018-06-25T10:55:56.182Z,25.81
2018-06-25T10:58:24.962Z,25.98
2018-06-25T11:00:55.157Z,26.01
2018-06-25T11:03:23.963Z,26.25
2018-06-25T11:05:53.315Z,26.40
2018-06-25T11:08:22.130Z,26.67
2018-06-25T11:10:51.540Z,26.60
2018-06-25T11:13:20.310Z,26.50
2018-06-25T11:15:49.738Z,26.34
2018-06-25T11:18:18.490Z,26.37
2018-06-25T11:20:48.097Z,26.31
2018-06-25T11:23:16.974Z,26.25
2018-06-25T11:25:46.403Z,26.06
2018-06-25T11:28:15.194Z,26.05
2018-06-25T11:30:43.934Z,25.83
2018-06-25T11:33:13.551Z,25.78
2018-06-25T11:35:43.106Z,25.75
2018-06-25T11:38:12.013Z,25.84
2018-06-25T11:40:41.469Z,25.84
2018-06-25T11:43:12.418Z,25.90
2018-06-25T11:45:41.459Z,26.02
2018-06-25T11:48:11.581Z,26.18
2018-06-25T11:50:40.747Z,26.40
2018-06-25T11:53:09.876Z,26.51
2018-06-25T11:55:39.788Z,26.53
2018-06-25T11:58:08.609Z,26.44
2018-06-25T12:00:37.418Z,26.46
2018-06-25T12:03:06.409Z,26.26
2018-06-25T12:05:36.038Z,26.09
2018-06-25T12:08:04.879Z,26.08
2018-06-25T12:10:34.479Z,26.04
2018-06-25T12:13:03.306Z,25.98
2018-06-25T12:15:33.188Z,25.78
2018-06-25T12:18:02.000Z,25.78
2018-06-25T12:20:30.741Z,25.70
2018-06-25T12:23:00.431Z,25.75
2018-06-25T12:25:29.188Z,25.73
2018-06-25T12:27:57.969Z,25.65
2018-06-25T12:30:26.841Z,25.66
2018-06-25T12:32:56.362Z,25.85
2018-06-25T12:35:25.755Z,26.05
2018-06-25T12:37:54.576Z,26.11
2018-06-25T12:40:23.291Z,26.20
2018-06-25T12:42:52.082Z,26.30
2018-06-25T12:45:20.906Z,26.28
2018-06-25T12:47:49.792Z,26.20
2018-06-25T12:50:18.665Z,25.94
2018-06-25T12:52:47.427Z,25.72
2018-06-25T12:55:17.034Z,25.69
2018-06-25T12:57:45.789Z,25.63
2018-06-25T13:00:14.578Z,25.52
2018-06-25T13:02:43.367Z,25.49
2018-06-25T13:05:13.313Z,25.61
2018-06-25T13:07:42.269Z,25.87
2018-06-25T13:10:12.516Z,26.23
2018-06-25T13:12:42.230Z,26.43
2018-06-25T13:15:12.334Z,26.38
2018-06-25T13:17:42.911Z,26.18
2018-06-25T13:20:12.686Z,26.19
2018-06-25T13:22:43.223Z,26.44
2018-06-25T13:25:12.318Z,26.60
2018-06-25T13:27:41.916Z,26.73
2018-06-25T13:30:11.084Z,26.67
2018-06-25T13:32:41.336Z,26.70
2018-06-25T13:35:11.515Z,26.78
2018-06-25T13:37:40.618Z,26.76
2018-06-25T13:40:09.692Z,26.84
2018-06-25T13:42:38.772Z,26.96
2018-06-25T13:45:08.925Z,26.91
2018-06-25T13:47:37.744Z,27.00
2018-06-25T13:50:06.679Z,26.94
2018-06-25T13:52:35.536Z,27.05
2018-06-25T13:55:05.169Z,26.98
2018-06-25T13:57:34.607Z,27.10
2018-06-25T14:00:03.494Z,27.02
2018-06-25T14:02:32.256Z,26.93
2018-06-25T14:05:01.034Z,26.79
2018-06-25T14:07:30.466Z,26.78
2018-06-25T14:09:59.947Z,26.82
2018-06-25T14:12:29.014Z,26.86
2018-06-25T14:14:58.511Z,26.97
2018-06-25T14:17:27.871Z,26.84
2018-06-25T14:19:57.409Z,26.73
2018-06-25T14:22:27.005Z,26.78
2018-06-25T14:25:01.752Z,26.84
2018-06-25T14:27:35.885Z,26.72
2018-06-25T14:30:09.700Z,26.75
2018-06-25T14:32:40.205Z,26.78
2018-06-25T14:35:16.646Z,26.83
2018-06-25T14:37:46.384Z,26.83
2018-06-25T14:40:15.394Z,26.59
2018-06-25T14:42:44.322Z,26.46
2018-06-25T14:45:13.501Z,26.43
2018-06-25T14:47:42.387Z,26.40
2018-06-25T14:50:11.593Z,26.34
2018-06-25T14:52:41.003Z,26.29
2018-06-25T14:55:12.312Z,26.17
2018-06-25T14:57:42.174Z,26.15
2018-06-25T15:00:11.118Z,26.15
2018-06-25T15:02:40.581Z,26.06
2018-06-25T15:05:10.676Z,25.95
2018-06-25T15:07:39.590Z,25.82
2018-06-25T15:10:10.774Z,25.76
2018-06-25T15:12:40.946Z,25.64
2018-06-25T15:15:10.845Z,25.53
2018-06-25T15:17:42.027Z,25.53
2018-06-25T15:20:11.484Z,25.49
2018-06-25T15:22:41.164Z,25.45
2018-06-25T15:25:12.008Z,25.41
2018-06-25T15:27:41.766Z,25.46
2018-06-25T15:30:10.677Z,25.54
2018-06-25T15:32:41.528Z,25.54
2018-06-25T15:35:10.675Z,25.49
2018-06-25T15:37:39.742Z,25.52
2018-06-25T15:40:08.584Z,25.52
2018-06-25T15:42:37.542Z,25.51
2018-06-25T15:45:06.367Z,25.52
2018-06-25T15:47:35.250Z,25.47
2018-06-25T15:50:04.137Z,25.46
2018-06-25T15:52:32.945Z,25.39
2018-06-25T15:55:02.375Z,25.27
2018-06-25T15:57:31.955Z,25.18
2018-06-25T16:00:00.840Z,25.17
2018-06-25T16:02:29.608Z,25.19
2018-06-25T16:04:58.443Z,25.19
2018-06-25T16:07:28.065Z,25.05
2018-06-25T16:09:57.569Z,25.00
2018-06-25T16:12:27.230Z,25.03
2018-06-25T16:14:56.968Z,25.03
2018-06-25T16:17:26.248Z,24.96
2018-06-25T16:19:55.514Z,24.89
2018-06-25T16:22:25.081Z,24.90
2018-06-25T16:24:53.920Z,24.97
2018-06-25T16:27:22.781Z,24.93
2018-06-25T16:29:51.822Z,24.98
2018-06-25T16:32:21.563Z,25.03
2018-06-25T16:34:51.007Z,25.10
2018-06-25T16:37:19.870Z,25.10
2018-06-25T16:39:48.683Z,25.11
2018-06-25T16:42:17.538Z,25.16
2018-06-25T16:44:46.550Z,25.13
2018-06-25T16:47:15.763Z,25.05
2018-06-25T16:49:44.619Z,25.01
2018-06-25T16:52:13.372Z,24.97
2018-06-25T16:54:42.751Z,24.97
2018-06-25T16:57:12.750Z,24.98
2018-06-25T16:59:41.872Z,24.93
2018-06-25T17:02:11.158Z,24.82
2018-06-25T17:04:40.114Z,24.80
2018-06-25T17:07:10.210Z,24.74
2018-06-25T17:09:40.047Z,24.68
2018-06-25T17:12:10.030Z,24.63
2018-06-25T17:14:39.984Z,24.71
2018-06-25T17:17:09.715Z,24.82
2018-06-25T17:19:39.308Z,24.89
2018-06-25T17:22:08.951Z,25.02
2018-06-25T17:24:37.784Z,25.11
2018-06-25T17:27:06.652Z,25.19
2018-06-25T17:29:35.476Z,26.34
2018-06-25T17:32:05.508Z,27.62
2018-06-25T17:34:35.170Z,28.62
2018-06-25T17:37:04.727Z,29.53
2018-06-25T17:39:33.559Z,30.23
2018-06-25T17:42:02.378Z,30.61
2018-06-25T17:44:31.150Z,31.16
2018-06-25T17:46:59.922Z,31.43
2018-06-25T17:49:29.295Z,31.84
2018-06-25T17:51:57.773Z,32.27
2018-06-25T17:54:27.499Z,32.49
2018-06-25T17:56:57.005Z,32.69
2018-06-25T17:59:25.966Z,32.89
2018-06-25T18:01:54.835Z,33.11
2018-06-25T18:04:23.740Z,33.28
2018-06-25T18:06:53.183Z,33.32
2018-06-25T18:09:22.652Z,33.41
2018-06-25T18:11:51.517Z,33.37
2018-06-25T18:14:21.414Z,33.36
2018-06-25T18:16:51.454Z,33.32
2018-06-25T18:19:20.980Z,33.39
2018-06-25T18:21:50.625Z,33.42
2018-06-25T18:24:19.459Z,33.38
2018-06-25T18:26:48.221Z,33.35
2018-06-25T18:29:17.093Z,33.35
2018-06-25T18:31:46.531Z,33.23
2018-06-25T18:34:16.493Z,33.14
2018-06-25T18:36:45.292Z,33.09
2018-06-25T18:39:14.823Z,33.08
2018-06-25T18:41:44.307Z,32.85
2018-06-25T18:44:13.831Z,32.09
2018-06-25T18:46:42.659Z,31.48
2018-06-25T18:49:12.726Z,30.68
2018-06-25T18:51:41.872Z,29.92
2018-06-25T18:54:10.895Z,29.19
2018-06-25T18:56:40.640Z,28.58
2018-06-25T18:59:09.793Z,27.93
2018-06-25T19:01:38.601Z,27.31
2018-06-25T19:04:07.475Z,26.77
2018-06-25T19:06:37.159Z,26.33
2018-06-25T19:09:09.863Z,25.91
2018-06-25T19:11:39.362Z,25.52
2018-06-25T19:14:09.584Z,25.19
2018-06-25T19:16:39.606Z,24.86
2018-06-25T19:19:09.249Z,24.56
2018-06-25T19:21:38.736Z,24.37
2018-06-25T19:24:07.590Z,24.21
2018-06-25T19:26:36.411Z,24.01
2018-06-25T19:29:05.248Z,23.80
2018-06-25T19:31:34.602Z,23.61
2018-06-25T19:34:04.171Z,23.44
2018-06-25T19:36:33.479Z,23.29
2018-06-25T19:39:02.254Z,23.10
2018-06-25T19:41:31.074Z,22.90
2018-06-25T19:43:59.927Z,22.71
2018-06-25T19:46:28.750Z,22.56
2018-06-25T19:48:57.602Z,22.43
2018-06-25T19:51:27.128Z,22.32
2018-06-25T19:53:56.099Z,22.20
2018-06-25T19:56:25.678Z,22.07
2018-06-25T19:58:54.494Z,21.94
2018-06-25T20:01:23.298Z,21.86
2018-06-25T20:03:52.833Z,21.79
2018-06-25T20:06:22.242Z,21.66
2018-06-25T20:08:51.066Z,21.54
2018-06-25T20:11:20.785Z,21.43
2018-06-25T20:13:50.778Z,21.32
2018-06-25T20:16:20.336Z,21.22
2018-06-25T20:18:49.122Z,21.11
2018-06-25T20:21:18.522Z,20.99
2018-06-25T20:23:47.348Z,20.91
2018-06-25T20:26:16.188Z,20.79
2018-06-25T20:28:44.981Z,20.70
2018-06-25T20:31:14.522Z,20.59
2018-06-25T20:33:44.221Z,20.42
2018-06-25T20:36:14.201Z,20.30
2018-06-25T20:38:42.958Z,20.19
2018-06-25T20:41:12.098Z,20.10
2018-06-25T20:43:41.059Z,20.01
2018-06-25T20:46:10.110Z,19.89
2018-06-25T20:48:39.219Z,19.80
2018-06-25T20:51:08.116Z,19.71
2018-06-25T20:53:37.035Z,19.65
2018-06-25T20:56:07.324Z,19.58
2018-06-25T20:58:36.113Z,19.52
2018-06-25T21:01:05.787Z,19.47
2018-06-25T21:03:34.542Z,19.40
2018-06-25T21:06:04.115Z,19.35
2018-06-25T21:08:32.870Z,19.27
2018-06-25T21:11:04.235Z,19.19
2018-06-25T21:13:33.002Z,19.07
2018-06-25T21:16:02.399Z,19.00
2018-06-25T21:18:31.200Z,18.91
2018-06-25T21:21:01.207Z,18.80
2018-06-25T21:23:29.966Z,18.71
2018-06-25T21:25:58.767Z,18.64
2018-06-25T21:28:27.542Z,18.58
2018-06-25T21:30:56.358Z,18.52
2018-06-25T21:33:25.877Z,18.42
2018-06-25T21:35:55.770Z,18.35
2018-06-25T21:38:24.506Z,18.27
2018-06-25T21:40:53.314Z,18.18
2018-06-25T21:43:22.119Z,18.08
2018-06-25T21:45:50.878Z,18.00
2018-06-25T21:48:19.902Z,17.91
2018-06-25T21:50:49.361Z,17.83
2018-06-25T21:53:18.101Z,17.72
2018-06-25T21:55:47.758Z,17.64
2018-06-25T21:58:17.384Z,17.58
2018-06-25T22:00:50.192Z,17.55
2018-06-25T22:03:19.052Z,17.50
2018-06-25T22:05:49.333Z,17.43
2018-06-25T22:08:18.151Z,17.38
2018-06-25T22:10:47.898Z,17.33
2018-06-25T22:13:16.679Z,17.29
2018-06-25T22:15:46.129Z,17.26
2018-06-25T22:18:14.889Z,17.20
2018-06-25T22:20:44.530Z,17.16
2018-06-25T22:23:13.308Z,17.10
2018-06-25T22:25:42.199Z,17.03
2018-06-25T22:28:11.343Z,16.98
2018-06-25T22:30:40.474Z,16.89
2018-06-25T22:33:10.255Z,16.79
2018-06-25T22:35:39.831Z,16.72
2018-06-25T22:38:08.615Z,16.64
2018-06-25T22:40:37.383Z,16.62
2018-06-25T22:43:06.194Z,16.61
2018-06-25T22:45:34.999Z,16.57
2018-06-25T22:48:03.931Z,16.55
2018-06-25T22:50:32.806Z,16.50
2018-06-25T22:53:01.572Z,16.43
2018-06-25T22:55:35.579Z,16.36
2018-06-25T22:58:04.395Z,16.29
2018-06-25T23:00:33.888Z,16.27
2018-06-25T23:03:02.739Z,16.22
2018-06-25T23:05:32.131Z,16.19
2018-06-25T23:08:00.956Z,16.14
2018-06-25T23:10:30.307Z,16.07
2018-06-25T23:12:59.144Z,16.01
2018-06-25T23:15:28.620Z,15.98
2018-06-25T23:17:57.428Z,15.93
2018-06-25T23:20:26.239Z,15.90
2018-06-25T23:22:57.354Z,15.85
2018-06-25T23:25:26.610Z,15.83
2018-06-25T23:27:55.375Z,15.79
2018-06-25T23:30:24.192Z,15.74
2018-06-25T23:32:53.925Z,15.65
2018-06-25T23:35:23.171Z,15.62
2018-06-25T23:37:51.971Z,15.56
2018-06-25T23:40:22.447Z,15.50
2018-06-25T23:42:51.283Z,15.45
2018-06-25T23:45:20.062Z,15.41
2018-06-25T23:47:48.919Z,15.37
2018-06-25T23:50:17.882Z,15.37
2018-06-25T23:52:46.651Z,15.35
2018-06-25T23:55:16.285Z,15.36
2018-06-25T23:57:45.180Z,15.36
